Terminal Aerodrome Forecast
Issued by NWS Los Angeles, CA

Home | Current Version | Previous Version | Text Only | Print | Product List | Glossary On
Versions: 1 2 3 4 5 6 7 8 9 10 11 12 13 14 15 16 17 18 19 20
000
FTUS46 KLOX 242342
TAFSMX
TAF
KSMX 242342Z 2500/2524 31012KT P6SM SCT040
     FM250300 30010KT P6SM OVC025
     FM250600 29005KT P6SM OVC015
     FM251700 30006KT P6SM OVC020
     FM252100 31014KT P6SM SCT025 BKN040=

USA.gov is the U.S. government's official web portal to all federal, state and local government web resources and services.